^^
Datos históricos de la estación: Murcia-Puente Tocinos
Diario Informe para Noviembre 10, 2019 Unidades:  Ingés    Métrico   Ambas
Diario Semanal Mensual Anual
  Máxima: Mínima: Promedio:
Temperatura: 62.2 °F 54.7 °F 58.3 °F
Punto de rocio: 48.7 °F 29.8 °F 38.1 °F
Humedad: 78.1% 30% 49%
Velocidad viento: 22.3mph 1.8mph 11.8mph
Racha viento: 43mph - -
Viento- - OSO
Presión: 29.9 in 29.8 in -
Precipitación: 0.01 in    
 
 
Tabla de datos para Noviembre 10, 2019
Hora Temperatura Punto de rocio Presión Viento Velocidad viento Racha viento Humedad Intensidad lluvia(por hora) Nubes
00:04 55.2 °F 48.6 °F 29.9 in SE 2.4 mph 5 mph 78.1% 0 in
00:09 55.2 °F 48.4 °F 29.9 in SSE 2.4 mph 5 mph 77.9% 0 in
00:14 55.4 °F 48.4 °F 29.9 in SSE 2.4 mph 5 mph 77.3% 0 in
00:19 55.6 °F 48.6 °F 29.9 in SSE 2.4 mph 5.2 mph 77.2% 0 in
00:24 55.6 °F 48.2 °F 29.9 in SSE 2.8 mph 5.8 mph 76.3% 0 in
00:29 55.8 °F 48.4 °F 29.9 in SSE 2.9 mph 6 mph 76.1% 0 in
00:34 55.8 °F 48.7 °F 29.9 in SE 3.8 mph 6 mph 76.9% 0 in
00:39 55.8 °F 48.7 °F 29.9 in SE 4 mph 6.9 mph 76.9% 0 in
00:44 55.6 °F 48.2 °F 29.9 in SSE 3.7 mph 7 mph 76% 0 in
00:49 55.6 °F 48 °F 29.9 in SSE 3.6 mph 6 mph 76% 0 in
00:54 55.6 °F 48 °F 29.9 in SSE 3 mph 5 mph 76% 0 in
00:59 55.6 °F 48 °F 29.9 in SSE 2.9 mph 3.6 mph 76% 0 in
01:04 55.6 °F 48 °F 29.9 in SSE 1.9 mph 4.7 mph 75.6% 0 in
01:09 55.6 °F 47.8 °F 29.9 in Sur 1.8 mph 5 mph 75% 0 in
01:14 55.6 °F 47.7 °F 29.9 in SSE 2.7 mph 5 mph 74.5% 0 in
01:19 55.8 °F 47.7 °F 29.9 in SSE 2.9 mph 5 mph 74% 0 in
01:24 55.8 °F 47.7 °F 29.9 in SSE 2.2 mph 4.6 mph 74.1% 0 in
01:29 55.8 °F 48 °F 29.9 in Sur 2 mph 5 mph 75% 0 in
01:34 55.9 °F 47.8 °F 29.9 in SSO 2 mph 5 mph 74.5% 0 in
01:39 55.9 °F 47.8 °F 29.9 in Sur 2 mph 5.2 mph 74% 0 in
01:44 56.1 °F 47.8 °F 29.9 in SSE 2.3 mph 5.8 mph 74% 0 in
01:49 56.1 °F 48.2 °F 29.9 in SSE 2.4 mph 6.9 mph 74.9% 0 in
01:54 56.1 °F 48.2 °F 29.9 in SSE 3.7 mph 7 mph 75% 0 in
01:59 55.9 °F 48.2 °F 29.9 in SSE 4 mph 6 mph 75% 0 in
02:04 55.9 °F 48 °F 29.9 in SE 3.7 mph 6 mph 75% 0 in
02:09 55.9 °F 48 °F 29.9 in SE 3.6 mph 6 mph 75% 0 in
02:14 55.9 °F 48 °F 29.9 in SE 3 mph 5.2 mph 74.9% 0 in
02:19 55.8 °F 47.7 °F 29.9 in SE 2.9 mph 5 mph 74% 0 in
02:24 55.9 °F 48 °F 29.9 in SE 2.9 mph 5.8 mph 74.8% 0 in
02:29 55.9 °F 48 °F 29.9 in ESE 2.9 mph 6 mph 75% 0 in
02:34 55.9 °F 48.2 °F 29.9 in ESE 2.9 mph 5.2 mph 75.1% 0 in
02:39 55.9 °F 48.2 °F 29.9 in SE 2.9 mph 6.9 mph 75.4% 0 in
02:44 55.8 °F 48 °F 29.9 in SE 4 mph 7.4 mph 75.2% 0 in
02:49 55.8 °F 47.7 °F 29.9 in SE 4.3 mph 7 mph 74.4% 0 in
02:54 55.8 °F 47.7 °F 29.9 in SE 4.3 mph 7 mph 74% 0 in
02:59 55.8 °F 47.7 °F 29.9 in SSE 4.3 mph 7.4 mph 74% 0 in
03:04 55.8 °F 47.7 °F 29.9 in SSE 4.3 mph 7 mph 74.2% 0 in
03:09 55.8 °F 47.7 °F 29.9 in Sur 4.3 mph 6 mph 74.1% 0 in
03:14 55.8 °F 47.7 °F 29.9 in SSE 4.3 mph 7.6 mph 74% 0 in
03:19 55.8 °F 47.7 °F 29.9 in SSE 4.3 mph 8.1 mph 74% 0 in
03:24 55.6 °F 47.5 °F 29.9 in SSE 5.2 mph 9.7 mph 74% 0 in
03:29 55.6 °F 47.7 °F 29.9 in Sur 5.4 mph 10 mph 74.9% 0 in
03:34 55.8 °F 47.3 °F 29.9 in Sur 5.8 mph 9.2 mph 73.6% 0 in
03:39 55.9 °F 47.3 °F 29.9 in SSE 5.9 mph 9.2 mph 72.9% 0 in
03:44 55.9 °F 47.5 °F 29.9 in Sur 6.2 mph 9.2 mph 73% 0 in
03:49 55.8 °F 47.3 °F 29.9 in SE 6.2 mph 9 mph 73% 0 in
03:54 55.8 °F 47.5 °F 29.9 in NNE 4.7 mph 8.5 mph 73.6% 0 in
03:59 55.4 °F 47.5 °F 29.9 in NNE 4.3 mph 9 mph 74.9% 0 in
04:04 55 °F 47.7 °F 29.9 in NO 4.3 mph 7 mph 76% 0 in
04:09 55 °F 47.5 °F 29.9 in NO 4.3 mph 5.2 mph 76% 0 in
04:14 54.9 °F 47.5 °F 29.9 in NO 2.7 mph 5 mph 76% 0 in
04:19 54.9 °F 47.8 °F 29.9 in Oeste 2.4 mph 5.9 mph 77% 0 in
04:24 54.9 °F 47.8 °F 29.9 in ONO 2.4 mph 6 mph 77.3% 0 in
04:29 54.9 °F 48 °F 29.9 in SSO 2.4 mph 7.6 mph 77.7% 0 in
04:34 54.9 °F 48 °F 29.9 in SO 3 mph 8.1 mph 77.5% 0 in
04:39 54.9 °F 48 °F 29.9 in SSO 3.1 mph 8.1 mph 78% 0 in
04:44 54.9 °F 47.8 °F 29.9 in SSO 4.1 mph 7.4 mph 77.3% 0 in
04:49 55 °F 47.5 °F 29.9 in SSO 4.3 mph 9.2 mph 75.3% 0 in
04:54 55.6 °F 47.8 °F 29.9 in SSO 5.2 mph 9 mph 75% 0 in
04:59 55.8 °F 47.7 °F 29.9 in SSO 5.4 mph 8.1 mph 74.3% 0 in
05:04 55.9 °F 47.5 °F 29.9 in SSO 5.2 mph 8 mph 73.3% 0 in
05:09 55.9 °F 47.3 °F 29.9 in SSO 5.2 mph 9.2 mph 72.5% 0 in
05:14 56.1 °F 46.9 °F 29.9 in Sur 4.5 mph 9 mph 71% 0 in
05:19 56.1 °F 47.3 °F 29.9 in SSO 4.3 mph 7 mph 72% 0 in
05:24 55.9 °F 47.1 °F 29.9 in SO 4.3 mph 11.2 mph 72.2% 0 in
05:29 56.1 °F 46.4 °F 29.9 in Oeste 4.3 mph 16.1 mph 69.9% 0 in
05:34 58.1 °F 44.2 °F 29.9 in ONO 5.8 mph 32.4 mph 60.1% 0.01 in
05:39 59.9 °F 43.3 °F 29.9 in Oeste 6.2 mph 32 mph 54.3% 0.01 in
05:44 60.3 °F 43 °F 29.9 in Oeste 13.6 mph 33.5 mph 52.8% 0.01 in
05:49 60.4 °F 43.2 °F 29.9 in Oeste 15.2 mph 33 mph 53% 0.01 in
05:54 60.3 °F 43.2 °F 29.9 in Oeste 13.4 mph 22 mph 53% 0.01 in
05:59 60.1 °F 43.2 °F 29.9 in ONO 13 mph 22 mph 53.5% 0.01 in
06:04 59.9 °F 43.2 °F 29.9 in ONO 13 mph 23.5 mph 54% 0.01 in
06:09 59.9 °F 43 °F 29.9 in Oeste 13 mph 26.5 mph 53.4% 0.01 in
06:14 60.1 °F 43 °F 29.9 in ONO 14.4 mph 26 mph 53% 0.01 in
06:19 59.7 °F 42.6 °F 29.9 in ONO 14.7 mph 23 mph 53% 0.01 in
06:24 59.5 °F 42.6 °F 29.9 in ONO 13.3 mph 18.4 mph 53.2% 0.01 in
06:29 59.4 °F 42.3 °F 29.9 in ONO 13 mph 21.9 mph 52.9% 0.01 in
06:34 59.4 °F 41.7 °F 29.9 in ONO 11.7 mph 22 mph 52% 0.01 in
06:39 59.2 °F 41.5 °F 29.9 in ONO 11.4 mph 20.8 mph 52% 0 in
06:44 59 °F 41.4 °F 29.9 in ONO 12.2 mph 21.3 mph 52% 0 in
06:49 58.8 °F 41.2 °F 29.9 in ONO 12.3 mph 24.2 mph 52% 0 in
06:54 58.6 °F 41 °F 29.9 in ONO 12.9 mph 24 mph 51.6% 0 in
06:59 58.6 °F 40.5 °F 29.9 in ONO 13 mph 23 mph 51% 0 in
07:04 58.5 °F 40.3 °F 29.9 in ONO 12.4 mph 21.9 mph 50.9% 0 in
07:09 58.5 °F 39.9 °F 29.9 in ONO 12.3 mph 22 mph 50% 0 in
07:14 58.5 °F 39.9 °F 29.9 in ONO 11.6 mph 22 mph 50% 0 in
07:19 58.3 °F 39.6 °F 29.9 in Oeste 11.4 mph 19 mph 49.6% 0 in
07:24 58.3 °F 38.8 °F 29.9 in Oeste 9.6 mph 23.5 mph 48.4% 0 in
07:29 58.1 °F 38.5 °F 29.9 in ONO 9.2 mph 23 mph 48% 0 in
07:34 57.9 °F 38.3 °F 29.9 in ONO 8.8 mph 15 mph 48% 0 in
07:39 57.7 °F 37.8 °F 29.9 in ONO 8.7 mph 17.5 mph 47.3% 0 in
07:44 57.7 °F 37.8 °F 29.9 in Oeste 8.2 mph 20.1 mph 47.4% 0 in
07:49 57.7 °F 38.1 °F 29.9 in Oeste 8.1 mph 21 mph 48% 0 in
07:54 57.6 °F 38.3 °F 29.9 in ONO 9 mph 17.5 mph 48.6% 0 in
07:59 57.6 °F 38.5 °F 29.9 in ONO 9.2 mph 23 mph 49% 0 in
08:04 57.6 °F 38.1 °F 29.9 in ONO 11.5 mph 26.5 mph 48.4% 0 in
08:09 57.6 °F 37.9 °F 29.9 in ONO 11.8 mph 27.9 mph 47.9% 0 in
08:14 57.6 °F 37.9 °F 29.9 in ONO 14.7 mph 28 mph 48% 0 in
08:19 57.4 °F 37.8 °F 29.9 in ONO 15.2 mph 28.8 mph 48% 0 in
08:24 57 °F 37.6 °F 29.9 in ONO 14.8 mph 32.4 mph 48% 0 in
08:29 56.8 °F 37.4 °F 29.9 in ONO 14.7 mph 32.4 mph 48% 0 in
08:34 56.7 °F 37.6 °F 29.9 in Oeste 15.5 mph 32 mph 48.7% 0 in
08:39 56.5 °F 37.8 °F 29.9 in Oeste 15.6 mph 29.7 mph 49.5% 0 in
08:44 56.1 °F 37.9 °F 29.9 in ONO 15.3 mph 30 mph 50.5% 0 in
08:49 55.9 °F 38.1 °F 29.9 in ONO 15.2 mph 32.7 mph 51% 0 in
08:54 55.9 °F 38.1 °F 29.9 in ONO 16.5 mph 33 mph 51.1% 0 in
08:59 55.9 °F 38.3 °F 29.9 in ONO 16.8 mph 28.8 mph 51.5% 0 in
09:04 55.9 °F 38.3 °F 29.9 in ONO 16.4 mph 29 mph 51.3% 0 in
09:09 55.9 °F 38.1 °F 29.9 in ONO 16.3 mph 28 mph 51% 0 in
09:14 56.1 °F 38.1 °F 29.9 in ONO 14.8 mph 28 mph 51% 0 in
09:19 56.1 °F 38.3 °F 29.9 in ONO 14.5 mph 27.6 mph 51% 0 in
09:24 56.5 °F 38.1 °F 29.9 in ONO 15.4 mph 28 mph 50.2% 0 in
09:29 56.7 °F 38.3 °F 29.9 in ONO 15.6 mph 26 mph 50% 0 in
09:34 57 °F 38.3 °F 29.9 in Oeste 13.9 mph 27.6 mph 49.6% 0 in
09:39 57.4 °F 38.1 °F 29.9 in ONO 13.5 mph 28 mph 48.7% 0 in
09:44 57.6 °F 37.9 °F 29.9 in ONO 13.9 mph 28 mph 47.9% 0 in
09:49 57.7 °F 37.2 °F 29.9 in ONO 14 mph 26.5 mph 46.3% 0 in
09:54 57.9 °F 37 °F 29.9 in ONO 15 mph 41.5 mph 45.7% 0 in
09:59 57.9 °F 36.7 °F 29.9 in ONO 15.2 mph 42 mph 45% 0 in
10:04 57.9 °F 36.7 °F 29.9 in ONO 20.9 mph 41 mph 45% 0 in
10:09 57.9 °F 36.1 °F 29.9 in ONO 21.9 mph 35.1 mph 43.8% 0 in
10:14 57.9 °F 36 °F 29.9 in ONO 17.8 mph 35 mph 43.8% 0 in
10:19 58.1 °F 36 °F 29.9 in ONO 17 mph 34.8 mph 43.5% 0 in
10:24 57.9 °F 36.1 °F 29.9 in ONO 18.7 mph 35 mph 44% 0 in
10:29 57.9 °F 36.1 °F 29.9 in Oeste 19 mph 35 mph 44% 0 in
10:34 58.3 °F 36.3 °F 29.9 in ONO 19.9 mph 33.7 mph 43.8% 0 in
10:39 58.5 °F 36 °F 29.9 in ONO 20.1 mph 34 mph 42.9% 0 in
10:44 58.5 °F 35.6 °F 29.9 in ONO 17.4 mph 32.4 mph 42.4% 0 in
10:49 58.5 °F 35.8 °F 29.9 in ONO 16.8 mph 32 mph 42.6% 0 in
10:54 58.5 °F 35.6 °F 29.9 in ONO 15.1 mph 26 mph 42.3% 0 in
10:59 58.6 °F 35.4 °F 29.9 in ONO 14.7 mph 24.2 mph 42% 0 in
11:04 58.6 °F 35.1 °F 29.9 in ONO 14.1 mph 31.3 mph 41.2% 0 in
11:09 58.6 °F 34.9 °F 29.9 in ONO 14 mph 31 mph 41% 0 in
11:14 58.6 °F 35.1 °F 29.9 in ONO 16.5 mph 29.9 mph 41% 0 in
11:19 58.6 °F 34.5 °F 29.9 in ONO 17 mph 31.1 mph 40.2% 0 in
11:24 58.6 °F 34.7 °F 29.9 in ONO 17.4 mph 31 mph 40.3% 0 in
11:29 59 °F 34.7 °F 29.9 in Oeste 17.5 mph 29.9 mph 40% 0 in
11:34 59.2 °F 34.7 °F 29.9 in Oeste 15.9 mph 34.5 mph 39.8% 0 in
11:39 59.4 °F 34.3 °F 29.9 in ONO 15.6 mph 35 mph 38.8% 0 in
11:44 59.4 °F 33.3 °F 29.9 in ONO 17.1 mph 31.7 mph 37.3% 0 in
11:49 59.4 °F 33.3 °F 29.9 in Oeste 17.5 mph 39.3 mph 37.3% 0 in
11:54 59.2 °F 32.7 °F 29.9 in ONO 20.8 mph 39 mph 36.7% 0 in
11:59 59.4 °F 32.4 °F 29.9 in ONO 21.5 mph 36 mph 36% 0 in
12:04 59.5 °F 32.5 °F 29.9 in ONO 22.2 mph 35.7 mph 36% 0 in
12:09 59.5 °F 32.7 °F 29.9 in ONO 22.3 mph 36 mph 36.1% 0 in
12:14 59.9 °F 31.5 °F 29.9 in ONO 20.1 mph 36.8 mph 34.1% 0 in
12:19 59.9 °F 32 °F 29.9 in ONO 19.7 mph 37 mph 34.7% 0 in
12:24 60.3 °F 32.4 °F 29.9 in ONO 20.3 mph 36.8 mph 35% 0 in
12:29 60.1 °F 32.7 °F 29.9 in ONO 20.4 mph 37 mph 35.4% 0 in
12:34 60.3 °F 32.9 °F 29.9 in Oeste 18.5 mph 31.3 mph 35.4% 0 in
12:39 60.6 °F 32.5 °F 29.9 in ONO 18.1 mph 31.1 mph 34.7% 0 in
12:44 61 °F 31.8 °F 29.9 in ONO 15.2 mph 28 mph 33.2% 0 in
12:49 60.6 °F 31.5 °F 29.9 in ONO 14.5 mph 34.5 mph 33.1% 0 in
12:54 60.8 °F 32.2 °F 29.9 in ONO 18.3 mph 35 mph 33.9% 0 in
12:59 61.2 °F 32.4 °F 29.9 in ONO 19 mph 29.9 mph 33.9% 0 in
13:04 61.2 °F 31.8 °F 29.9 in ONO 16.3 mph 30 mph 33% 0 in
13:09 61.3 °F 31.5 °F 29.9 in ONO 15.9 mph 36 mph 32.4% 0 in
13:14 61.2 °F 30.4 °F 29.9 in ONO 18.1 mph 36 mph 31.1% 0 in
13:19 61.2 °F 29.8 °F 29.9 in ONO 18.5 mph 36.8 mph 30.3% 0 in
13:24 61.2 °F 30.2 °F 29.9 in ONO 19.8 mph 37 mph 30.8% 0 in
13:29 61.5 °F 30.4 °F 29.9 in ONO 20.1 mph 31.3 mph 30.7% 0 in
13:34 61.5 °F 29.8 °F 29.9 in ONO 16.7 mph 34.5 mph 30% 0 in
13:39 61.7 °F 29.8 °F 29.9 in Oeste 15.9 mph 35 mph 30% 0 in
13:44 61.7 °F 30 °F 29.9 in Oeste 16.8 mph 29 mph 30.1% 0 in
13:49 61.7 °F 30.2 °F 29.9 in ONO 17 mph 34.5 mph 30.3% 0 in
13:54 61.7 °F 30 °F 29.9 in ONO 17.9 mph 38 mph 30% 0 in
13:59 62.1 °F 30.2 °F 29.9 in ONO 18.1 mph 38 mph 30.1% 0 in
14:04 62.1 °F 30.2 °F 29.9 in Oeste 18.1 mph 35.7 mph 30% 0 in
14:09 62.1 °F 30.4 °F 29.9 in ONO 18.1 mph 36 mph 30.2% 0 in
14:14 62.1 °F 30.6 °F 29.9 in ONO 18.5 mph 30 mph 30.4% 0 in
14:19 62.2 °F 30.7 °F 29.9 in ONO 18.5 mph 32.7 mph 30.4% 0 in
14:24 62.2 °F 30.4 °F 29.9 in ONO 17.3 mph 33 mph 30% 0 in
14:29 62.2 °F 30.4 °F 29.9 in ONO 17 mph 32 mph 30% 0 in
14:34 62.1 °F 30.2 °F 29.9 in ONO 18.8 mph 39.1 mph 30% 0 in
14:39 62.1 °F 30.2 °F 29.9 in ONO 19.2 mph 39 mph 30% 0 in
14:44 61.9 °F 30.7 °F 29.9 in ONO 20.2 mph 35.7 mph 30.9% 0 in
14:49 62.1 °F 31.6 °F 29.9 in ONO 20.4 mph 36 mph 31.7% 0 in
14:54 62.1 °F 31.8 °F 29.9 in Oeste 20.4 mph 38.4 mph 32.1% 0 in
14:59 62.1 °F 31.3 °F 29.9 in ONO 20.4 mph 38 mph 31.3% 0 in
15:04 62.1 °F 31.3 °F 29.9 in ONO 21.4 mph 42.9 mph 31.3% 0 in
15:09 62.2 °F 31.3 °F 29.9 in ONO 21.5 mph 43 mph 31.2% 0 in
15:14 62.1 °F 31.1 °F 29.8 in ONO 20.9 mph 40.5 mph 31% 0 in
15:19 62.1 °F 31.1 °F 29.8 in Oeste 20.8 mph 40 mph 31% 0 in
15:24 62.2 °F 31.6 °F 29.9 in ONO 22.1 mph 36.2 mph 31.7% 0 in
15:29 62.1 °F 31.8 °F 29.9 in ONO 22.3 mph 37 mph 32% 0 in
15:34 62.1 °F 31.8 °F 29.9 in ONO 20.7 mph 35 mph 32% 0 in
15:39 62.1 °F 31.8 °F 29.9 in ONO 20.4 mph 38 mph 32% 0 in
15:44 62.1 °F 32 °F 29.9 in ONO 20.1 mph 39.3 mph 32.5% 0 in
15:49 61.9 °F 32.4 °F 29.9 in ONO 20.1 mph 39 mph 33% 0 in
15:54 61.9 °F 32.4 °F 29.9 in ONO 20.4 mph 35.1 mph 33% 0 in
15:59 61.9 °F 33.1 °F 29.9 in ONO 20.4 mph 35 mph 34% 0 in
16:04 61.9 °F 33.3 °F 29.9 in ONO 18.8 mph 35.7 mph 34% 0 in
16:09 61.9 °F 33.4 °F 29.9 in ONO 18.5 mph 36 mph 34.5% 0 in
16:14 61.7 °F 33.8 °F 29.9 in Oeste 17.6 mph 27.6 mph 35% 0 in
16:19 61.5 °F 33.6 °F 29.9 in ONO 17.5 mph 29.9 mph 35% 0 in
16:24 61.5 °F 33.6 °F 29.9 in ONO 17.5 mph 34.5 mph 35% 0 in
16:29 61.3 °F 33.4 °F 29.9 in ONO 17.5 mph 35 mph 35.1% 0 in
16:34 61.3 °F 33.8 °F 29.9 in ONO 17.8 mph 31 mph 35.4% 0 in
16:39 61.3 °F 33.6 °F 29.9 in Oeste 17.8 mph 30 mph 35.4% 0 in
16:44 61.3 °F 33.4 °F 29.9 in ONO 16 mph 29.1 mph 35% 0 in
16:49 61.2 °F 33.3 °F 29.9 in Oeste 15.6 mph 29 mph 35% 0 in
16:54 61 °F 33.1 °F 29.9 in ONO 14.8 mph 33.4 mph 35% 0 in
16:59 61 °F 33.1 °F 29.9 in Oeste 14.7 mph 33 mph 35.1% 0 in
17:04 61 °F 33.3 °F 29.9 in ONO 14.5 mph 27.6 mph 35.2% 0 in
17:09 61 °F 33.1 °F 29.9 in Oeste 14.5 mph 28 mph 35% 0 in
17:14 61 °F 33.1 °F 29.9 in Oeste 13.7 mph 23.5 mph 35% 0 in
17:19 61.2 °F 33.3 °F 29.9 in Oeste 13.5 mph 23 mph 35% 0 in
17:24 61.2 °F 33.3 °F 29.9 in Oeste 10.6 mph 17.3 mph 35% 0 in
17:29 61.2 °F 33.3 °F 29.9 in Oeste 10 mph 20.7 mph 35% 0 in
17:34 61.2 °F 33.3 °F 29.9 in Oeste 8.4 mph 21 mph 35% 0 in
17:39 61 °F 33.1 °F 29.9 in Oeste 8.1 mph 21.9 mph 35% 0 in
17:44 60.6 °F 32.9 °F 29.9 in Oeste 9.6 mph 22 mph 35% 0 in
17:49 60.6 °F 32.7 °F 29.9 in Oeste 10 mph 23.5 mph 35% 0 in
17:54 60.4 °F 33.4 °F 29.9 in Oeste 11.1 mph 23 mph 35.9% 0 in
17:59 60.4 °F 33.3 °F 29.9 in Oeste 11.4 mph 22.3 mph 36% 0 in
18:04 60.3 °F 33.3 °F 29.9 in ONO 11.2 mph 22 mph 36% 0 in
18:09 60.1 °F 33.1 °F 29.9 in Oeste 11.2 mph 29.1 mph 36% 0 in
18:14 60.1 °F 33.1 °F 29.9 in Oeste 13.5 mph 29 mph 36% 0 in
18:19 59.9 °F 32.9 °F 29.9 in ONO 14 mph 27.9 mph 36% 0 in
18:24 59.9 °F 32.9 °F 29.9 in Oeste 14.4 mph 28 mph 36.1% 0 in
18:29 59.9 °F 33.4 °F 29.9 in Oeste 14.5 mph 22 mph 37% 0 in
18:34 59.7 °F 33.4 °F 29.9 in Oeste 9.7 mph 16.1 mph 37% 0 in
18:39 59.5 °F 33.6 °F 29.9 in Oeste 8.7 mph 16 mph 37.5% 0 in
18:44 59.4 °F 33.8 °F 29.9 in Oeste 7.2 mph 14.7 mph 38% 0 in
18:49 59.4 °F 33.6 °F 29.9 in Oeste 6.9 mph 17.8 mph 38% 0 in
18:54 59.4 °F 33.8 °F 29.9 in ONO 7.9 mph 18.4 mph 38.1% 0 in
18:59 59.2 °F 34.2 °F 29.9 in Oeste 8.1 mph 19.2 mph 39% 0 in
19:04 59.2 °F 34.2 °F 29.9 in Oeste 9.1 mph 24.2 mph 39% 0 in
19:09 59.2 °F 34.2 °F 29.9 in Oeste 9.2 mph 24.2 mph 39% 0 in
19:14 59 °F 34.2 °F 29.9 in Oeste 9.2 mph 18 mph 39% 0 in
19:19 58.8 °F 34.2 °F 29.9 in Oeste 9.2 mph 16.3 mph 39.3% 0 in
19:24 58.8 °F 34.2 °F 29.9 in Oeste 7.9 mph 19.6 mph 39.5% 0 in
19:29 58.8 °F 34 °F 29.9 in Oeste 7.6 mph 20 mph 39.2% 0 in
19:34 58.8 °F 34.5 °F 29.9 in Oeste 9.6 mph 19 mph 39.9% 0 in
19:39 58.8 °F 34.5 °F 29.9 in Oeste 10 mph 24.2 mph 40% 0 in
19:44 58.8 °F 34.5 °F 29.9 in Oeste 11.5 mph 24 mph 40% 0 in
19:49 58.8 °F 34.5 °F 29.9 in Oeste 11.8 mph 25.3 mph 40% 0 in
19:54 58.6 °F 34.5 °F 29.9 in Oeste 11.3 mph 25 mph 40.2% 0 in
19:59 58.6 °F 34.7 °F 29.9 in Oeste 11.2 mph 22 mph 40.4% 0 in
20:04 58.6 °F 35.1 °F 29.9 in Oeste 11.7 mph 22 mph 41% 0 in
20:09 58.6 °F 34.9 °F 29.9 in Oeste 11.8 mph 21 mph 41% 0 in
20:14 58.5 °F 34.9 °F 29.9 in Oeste 11.3 mph 21 mph 41% 0 in
20:19 58.5 °F 35.1 °F 29.9 in Oeste 11.2 mph 21 mph 41.4% 0 in
20:24 58.3 °F 35.2 °F 29.9 in ONO 9.9 mph 26.5 mph 42% 0 in
20:29 58.3 °F 35.2 °F 29.9 in ONO 9.7 mph 26 mph 42% 0 in
20:34 57.9 °F 35.1 °F 29.9 in ONO 10.5 mph 20 mph 42.1% 0 in
20:39 57.7 °F 35.4 °F 29.9 in ONO 10.7 mph 23 mph 43% 0 in
20:44 57.7 °F 35.4 °F 29.9 in Oeste 10.1 mph 23 mph 43% 0 in
20:49 57.6 °F 35.6 °F 29.9 in ONO 10 mph 19.6 mph 43.7% 0 in
20:54 57.6 °F 35.8 °F 29.9 in Oeste 10.2 mph 24.2 mph 44% 0 in
20:59 57.6 °F 35.8 °F 29.9 in ONO 10.2 mph 25.6 mph 44% 0 in
21:04 57.6 °F 35.8 °F 29.9 in Oeste 13.5 mph 26 mph 44% 0 in
21:09 57.4 °F 35.8 °F 29.9 in ONO 14 mph 21.9 mph 44.4% 0 in
21:14 57.4 °F 36.1 °F 29.9 in ONO 12.2 mph 24.2 mph 45% 0 in
21:19 57.4 °F 36.1 °F 29.9 in ONO 11.8 mph 24 mph 45% 0 in
21:24 57 °F 36.1 °F 29.9 in Oeste 13.2 mph 21 mph 45.3% 0 in
21:29 57 °F 36.3 °F 29.9 in ONO 13.5 mph 23.5 mph 46% 0 in
21:34 56.8 °F 36.3 °F 29.9 in ONO 11.6 mph 23 mph 46% 0 in
21:39 56.8 °F 36.3 °F 29.9 in ONO 11.2 mph 26.8 mph 46% 0 in
21:44 56.7 °F 36.1 °F 29.9 in ONO 14 mph 27 mph 46% 0 in
21:49 56.7 °F 36.3 °F 29.9 in ONO 14.5 mph 24.2 mph 46.4% 0 in
21:54 56.5 °F 36.5 °F 29.9 in ONO 14.7 mph 24.6 mph 47% 0 in
21:59 56.3 °F 36.3 °F 29.9 in ONO 14.7 mph 25 mph 47% 0 in
22:04 56.1 °F 36.1 °F 29.9 in ONO 14.1 mph 26.1 mph 47% 0 in
22:09 56.1 °F 36.1 °F 29.9 in ONO 14 mph 26.5 mph 47% 0 in
22:14 56.1 °F 36.1 °F 29.9 in ONO 14.6 mph 25.3 mph 47% 0 in
22:19 55.9 °F 36 °F 29.9 in Oeste 14.7 mph 25.3 mph 47% 0 in
22:24 55.9 °F 36.1 °F 29.9 in Oeste 12.9 mph 25 mph 47.2% 0 in
22:29 55.9 °F 36 °F 29.9 in Oeste 12.5 mph 23 mph 47% 0 in
22:34 55.9 °F 36 °F 29.9 in Oeste 12.5 mph 23 mph 47% 0 in
22:39 55.9 °F 36 °F 29.9 in Oeste 12.5 mph 25.3 mph 47% 0 in
22:44 55.8 °F 36 °F 29.9 in Oeste 13.4 mph 25 mph 47% 0 in
22:49 55.8 °F 36.1 °F 29.9 in Oeste 13.5 mph 20 mph 47.6% 0 in
22:54 55.6 °F 36.5 °F 29.9 in ONO 11.2 mph 18.4 mph 48.7% 0 in
22:59 55.6 °F 36.7 °F 29.9 in Oeste 10.7 mph 18 mph 49% 0 in
23:04 55.6 °F 36.7 °F 29.9 in Oeste 9.4 mph 19 mph 49% 0 in
23:09 55.6 °F 36.1 °F 29.9 in Oeste 9.2 mph 23.5 mph 48% 0 in
23:14 55.6 °F 36.1 °F 29.9 in Oeste 11.4 mph 23 mph 48.2% 0 in
23:19 55.2 °F 36.5 °F 29.9 in Oeste 11.8 mph 19 mph 49% 0 in
23:24 55.2 °F 36.3 °F 29.9 in Oeste 10.1 mph 24.2 mph 49% 0 in
23:29 55.2 °F 36.3 °F 29.9 in OSO 9.7 mph 24 mph 49% 0 in
23:34 55 °F 36.1 °F 29.9 in ONO 8.9 mph 17.5 mph 49% 0 in
23:39 55 °F 36.1 °F 29.9 in Oeste 8.7 mph 17 mph 49% 0 in
23:44 55 °F 36.1 °F 29.9 in Oeste 6.4 mph 12 mph 49% 0 in
23:49 54.9 °F 36.5 °F 29.9 in NE 5.9 mph 10.4 mph 49.9% 0 in
23:54 54.9 °F 36.5 °F 29.9 in SE 4.3 mph 10 mph 50% 0 in
23:59 54.7 °F 36.3 °F 29.9 in ESE 4 mph 8.1 mph 50% 0 in
Murcia-Puente Tocinos, España
Compliments of Weather Underground - 3 mb

La estación de MeteoMurcia.com, publica sus datos en los siguientes proyectos:

Weather Underground PWS IMURCIAP2 Meteoclimatic www.awekas.at

W3Counter
Web Analytics